createdAt,value
2017-12-15T00:01:46.557Z,21.14
2017-12-15T00:04:13.994Z,21.14
2017-12-15T00:06:41.397Z,21.15
2017-12-15T00:09:08.825Z,21.12
2017-12-15T00:11:37.054Z,21.10
2017-12-15T00:14:04.488Z,21.09
2017-12-15T00:16:31.903Z,21.06
2017-12-15T00:18:59.348Z,21.09
2017-12-15T00:21:26.731Z,21.03
2017-12-15T00:23:54.259Z,21.09
2017-12-15T00:26:21.666Z,21.03
2017-12-15T00:28:49.140Z,21.04
2017-12-15T00:31:16.525Z,20.99
2017-12-15T00:33:43.902Z,20.99
2017-12-15T00:36:11.310Z,20.94
2017-12-15T00:38:38.679Z,20.96
2017-12-15T00:41:06.131Z,20.95
2017-12-15T00:43:33.568Z,20.93
2017-12-15T00:46:00.937Z,20.94
2017-12-15T00:48:28.375Z,20.90
2017-12-15T00:50:55.757Z,20.89
2017-12-15T00:53:23.174Z,20.88
2017-12-15T00:55:50.555Z,20.89
2017-12-15T00:58:17.982Z,20.86
2017-12-15T01:00:45.362Z,20.85
2017-12-15T01:03:13.404Z,20.84
2017-12-15T01:05:40.831Z,20.80
2017-12-15T01:08:08.212Z,20.83
2017-12-15T01:10:35.703Z,20.81
2017-12-15T01:13:03.189Z,20.80
2017-12-15T01:15:30.601Z,20.79
2017-12-15T01:17:57.999Z,20.80
2017-12-15T01:20:25.434Z,20.76
2017-12-15T01:22:52.824Z,20.76
2017-12-15T01:25:20.288Z,20.79
2017-12-15T01:27:47.654Z,20.76
2017-12-15T01:30:15.133Z,20.73
2017-12-15T01:32:42.545Z,20.73
2017-12-15T01:35:09.960Z,20.72
2017-12-15T01:37:37.382Z,20.71
2017-12-15T01:40:04.755Z,20.68
2017-12-15T01:42:32.169Z,20.70
2017-12-15T01:44:59.646Z,20.63
2017-12-15T01:47:27.120Z,20.65
2017-12-15T01:49:54.667Z,20.66
2017-12-15T01:52:22.071Z,20.60
2017-12-15T01:54:49.506Z,20.61
2017-12-15T01:57:16.894Z,20.60
2017-12-15T01:59:44.280Z,20.61
2017-12-15T02:02:11.812Z,20.79
2017-12-15T02:04:39.198Z,20.53
2017-12-15T02:07:06.689Z,20.40
2017-12-15T02:09:34.664Z,20.33
2017-12-15T02:12:02.028Z,20.28
2017-12-15T02:14:29.437Z,20.26
2017-12-15T02:16:56.954Z,20.27
2017-12-15T02:19:24.391Z,20.26
2017-12-15T02:21:51.817Z,20.28
2017-12-15T02:24:19.283Z,20.32
2017-12-15T02:26:46.685Z,20.31
2017-12-15T02:29:14.118Z,20.32
2017-12-15T02:31:41.523Z,20.35
2017-12-15T02:34:08.900Z,20.41
2017-12-15T02:36:36.304Z,20.40
2017-12-15T02:39:03.699Z,20.45
2017-12-15T02:41:31.939Z,20.47
2017-12-15T02:43:59.310Z,20.48
2017-12-15T02:46:26.810Z,20.49
2017-12-15T02:48:54.222Z,20.46
2017-12-15T02:51:21.664Z,20.55
2017-12-15T02:53:49.103Z,20.53
2017-12-15T02:56:16.506Z,20.54
2017-12-15T02:58:43.933Z,20.57
2017-12-15T03:01:11.336Z,20.54
2017-12-15T03:03:38.693Z,20.52
2017-12-15T03:06:06.161Z,20.58
2017-12-15T03:08:33.533Z,20.59
2017-12-15T03:11:00.926Z,20.64
2017-12-15T03:13:28.317Z,20.57
2017-12-15T03:15:55.738Z,20.57
2017-12-15T03:18:23.711Z,20.61
2017-12-15T03:20:51.126Z,20.60
2017-12-15T03:23:18.544Z,20.62
2017-12-15T03:25:45.979Z,20.57
2017-12-15T03:28:13.358Z,20.65
2017-12-15T03:30:40.729Z,20.68
2017-12-15T03:33:08.163Z,20.76
2017-12-15T03:35:35.644Z,20.65
2017-12-15T03:38:03.040Z,20.65
2017-12-15T03:40:30.435Z,20.65
2017-12-15T03:42:57.836Z,20.63
2017-12-15T03:45:25.250Z,20.62
2017-12-15T03:47:52.695Z,20.63
2017-12-15T03:50:20.119Z,20.61
2017-12-15T03:52:47.538Z,20.66
2017-12-15T03:55:15.016Z,20.69
2017-12-15T03:57:42.381Z,20.69
2017-12-15T04:00:09.815Z,20.70
2017-12-15T04:02:37.229Z,20.69
2017-12-15T04:05:04.638Z,20.74
2017-12-15T04:07:32.028Z,20.75
2017-12-15T04:09:59.506Z,20.77
2017-12-15T04:12:26.942Z,20.80
2017-12-15T04:14:54.501Z,20.96
2017-12-15T04:17:21.955Z,20.95
2017-12-15T04:19:49.402Z,20.95
2017-12-15T04:22:16.864Z,20.96
2017-12-15T04:24:44.439Z,21.05
2017-12-15T04:27:17.683Z,21.05
2017-12-15T04:29:45.122Z,21.13
2017-12-15T04:32:12.594Z,21.13
2017-12-15T04:34:40.001Z,21.18
2017-12-15T04:37:07.395Z,21.19
2017-12-15T04:39:34.974Z,21.18
2017-12-15T04:42:02.391Z,21.26
2017-12-15T04:44:29.849Z,21.21
2017-12-15T04:46:57.243Z,21.23
2017-12-15T04:49:24.657Z,21.27
2017-12-15T04:51:52.105Z,21.22
2017-12-15T04:54:19.708Z,21.27
2017-12-15T04:56:47.102Z,21.31
2017-12-15T04:59:14.566Z,21.40
2017-12-15T05:01:41.998Z,21.37
2017-12-15T05:04:09.389Z,21.40
2017-12-15T05:06:36.834Z,21.48
2017-12-15T05:09:04.310Z,21.38
2017-12-15T05:11:31.762Z,21.48
2017-12-15T05:13:59.195Z,21.44
2017-12-15T05:16:26.703Z,21.45
2017-12-15T05:18:54.313Z,21.51
2017-12-15T05:21:21.790Z,21.49
2017-12-15T05:23:49.234Z,21.59
2017-12-15T05:26:16.664Z,21.55
2017-12-15T05:28:44.120Z,21.52
2017-12-15T05:31:11.683Z,21.57
2017-12-15T05:33:39.200Z,21.60
2017-12-15T05:36:06.677Z,21.59
2017-12-15T05:38:34.110Z,21.61
2017-12-15T05:41:01.539Z,21.64
2017-12-15T05:43:28.942Z,21.57
2017-12-15T05:45:56.311Z,21.63
2017-12-15T05:48:23.947Z,21.61
2017-12-15T05:50:51.379Z,21.66
2017-12-15T05:53:18.867Z,21.65
2017-12-15T05:55:46.260Z,21.59
2017-12-15T05:58:13.742Z,21.63
2017-12-15T06:00:41.275Z,21.67
2017-12-15T06:03:08.688Z,21.66
2017-12-15T06:05:36.117Z,21.69
2017-12-15T06:08:03.558Z,21.72
2017-12-15T06:10:30.971Z,21.70
2017-12-15T06:12:58.422Z,21.73
2017-12-15T06:15:25.904Z,21.80
2017-12-15T06:17:53.355Z,21.70
2017-12-15T06:20:20.791Z,21.76
2017-12-15T06:22:48.186Z,21.83
2017-12-15T06:25:15.673Z,21.81
2017-12-15T06:27:43.114Z,21.87
2017-12-15T06:30:10.545Z,21.88
2017-12-15T06:32:38.247Z,22.03
2017-12-15T06:35:05.764Z,22.08
2017-12-15T06:37:33.223Z,22.17
2017-12-15T06:40:00.612Z,22.21
2017-12-15T06:42:28.182Z,22.28
2017-12-15T06:44:55.714Z,22.28
2017-12-15T06:47:23.196Z,22.33
2017-12-15T06:49:50.920Z,22.33
2017-12-15T06:52:18.436Z,22.40
2017-12-15T06:54:45.943Z,22.45
2017-12-15T06:57:14.642Z,22.45
2017-12-15T06:59:42.758Z,22.48
2017-12-15T07:02:10.176Z,22.50
2017-12-15T07:04:37.728Z,22.57
2017-12-15T07:07:05.162Z,22.55
2017-12-15T07:09:32.780Z,22.36
2017-12-15T07:12:00.336Z,22.40
2017-12-15T07:14:27.878Z,22.38
2017-12-15T07:16:55.409Z,22.42
2017-12-15T07:19:22.856Z,22.51
2017-12-15T07:21:50.343Z,22.41
2017-12-15T07:24:18.048Z,22.39
2017-12-15T07:26:45.672Z,22.46
2017-12-15T07:29:13.394Z,22.74
2017-12-15T07:31:40.951Z,22.76
2017-12-15T07:34:08.354Z,22.90
2017-12-15T07:36:35.842Z,22.82
2017-12-15T07:39:03.361Z,22.86
2017-12-15T07:41:30.774Z,22.99
2017-12-15T07:43:58.269Z,23.01
2017-12-15T07:46:25.780Z,23.03
2017-12-15T07:48:53.188Z,22.94
2017-12-15T07:51:23.892Z,23.04
2017-12-15T07:53:51.614Z,23.06
2017-12-15T07:56:19.059Z,23.21
2017-12-15T07:58:46.570Z,23.23
2017-12-15T08:01:15.440Z,23.36
2017-12-15T08:03:49.664Z,23.29
2017-12-15T08:06:17.282Z,23.25
2017-12-15T08:08:46.805Z,23.46
2017-12-15T08:11:15.293Z,23.42
2017-12-15T08:13:43.958Z,23.17
2017-12-15T08:16:12.938Z,23.26
2017-12-15T08:18:40.496Z,23.22
2017-12-15T08:21:07.963Z,23.41
2017-12-15T08:23:35.510Z,23.43
2017-12-15T08:26:03.284Z,23.49
2017-12-15T08:28:31.856Z,23.54
2017-12-15T08:30:59.401Z,23.46
2017-12-15T08:33:26.885Z,23.59
2017-12-15T08:35:54.905Z,23.67
2017-12-15T08:38:23.225Z,23.67
2017-12-15T08:40:52.824Z,23.65
2017-12-15T08:43:20.993Z,23.70
2017-12-15T08:45:50.118Z,23.78
2017-12-15T08:48:17.992Z,23.90
2017-12-15T08:50:46.977Z,23.60
2017-12-15T08:53:14.578Z,23.51
2017-12-15T08:55:42.098Z,23.61
2017-12-15T08:58:09.647Z,23.67
2017-12-15T09:00:37.620Z,23.87
2017-12-15T09:03:05.700Z,23.93
2017-12-15T09:05:33.728Z,24.06
2017-12-15T09:08:07.392Z,23.98
2017-12-15T09:10:36.986Z,24.11
2017-12-15T09:13:05.091Z,24.02
2017-12-15T09:15:32.581Z,24.13
2017-12-15T09:18:00.108Z,23.92
2017-12-15T09:20:28.682Z,23.90
2017-12-15T09:22:56.510Z,23.85
2017-12-15T09:25:25.667Z,23.96
2017-12-15T09:27:53.287Z,24.00
2017-12-15T09:30:21.111Z,23.86
2017-12-15T09:32:48.923Z,24.14
2017-12-15T09:35:16.824Z,24.08
2017-12-15T09:37:44.301Z,24.10
2017-12-15T09:40:12.216Z,24.09
2017-12-15T09:42:39.830Z,23.84
2017-12-15T09:45:07.243Z,23.96
2017-12-15T09:47:34.730Z,24.15
2017-12-15T09:50:02.373Z,24.28
2017-12-15T09:52:29.966Z,24.17
2017-12-15T09:55:00.867Z,24.00
2017-12-15T09:57:28.576Z,24.36
2017-12-15T09:59:58.663Z,24.25
2017-12-15T10:02:26.440Z,24.19
2017-12-15T10:04:54.810Z,24.35
2017-12-15T10:07:22.363Z,24.39
2017-12-15T10:09:50.974Z,24.42
2017-12-15T10:12:19.538Z,24.45
2017-12-15T10:14:47.134Z,24.53
2017-12-15T10:17:14.783Z,24.23
2017-12-15T10:19:42.498Z,24.15
2017-12-15T10:22:11.177Z,23.99
2017-12-15T10:24:38.647Z,24.25
2017-12-15T10:27:06.348Z,24.46
2017-12-15T10:29:33.971Z,24.48
2017-12-15T10:32:04.500Z,24.19
2017-12-15T10:34:31.962Z,24.20
2017-12-15T10:36:59.505Z,24.36
2017-12-15T10:39:27.016Z,24.19
2017-12-15T10:41:54.917Z,24.20
2017-12-15T10:44:23.574Z,24.16
2017-12-15T10:46:51.103Z,24.43
2017-12-15T10:49:18.777Z,24.35
2017-12-15T10:51:46.335Z,24.23
2017-12-15T10:54:14.146Z,24.33
2017-12-15T10:56:42.169Z,24.51
2017-12-15T10:59:10.178Z,24.53
2017-12-15T11:01:39.666Z,24.39
2017-12-15T11:04:07.482Z,24.30
2017-12-15T11:06:37.232Z,24.27
2017-12-15T11:09:04.958Z,24.27
2017-12-15T11:11:32.442Z,24.15
2017-12-15T11:13:59.971Z,24.26
2017-12-15T11:16:32.413Z,24.19
2017-12-15T11:19:00.349Z,24.16
2017-12-15T11:21:27.902Z,24.14
2017-12-15T11:23:55.591Z,24.18
2017-12-15T11:26:23.441Z,24.16
2017-12-15T11:28:53.629Z,24.14
2017-12-15T11:31:21.710Z,24.09
2017-12-15T11:33:50.090Z,24.04
2017-12-15T11:36:17.650Z,24.12
2017-12-15T11:38:45.112Z,24.07
2017-12-15T11:41:12.908Z,24.09
2017-12-15T11:43:40.716Z,24.14
2017-12-15T11:46:08.279Z,24.11
2017-12-15T11:48:54.116Z,24.11
2017-12-15T11:51:22.026Z,24.06
2017-12-15T11:53:49.597Z,24.06
2017-12-15T11:56:17.174Z,24.03
2017-12-15T11:58:44.941Z,24.05
2017-12-15T12:01:12.573Z,24.06
2017-12-15T12:03:40.333Z,24.04
2017-12-15T12:06:07.898Z,24.03
2017-12-15T12:08:35.385Z,24.05
2017-12-15T12:11:03.046Z,23.96
2017-12-15T12:13:30.652Z,24.02
2017-12-15T12:15:58.134Z,24.01
2017-12-15T12:18:25.735Z,23.97
2017-12-15T12:20:53.613Z,23.96
2017-12-15T12:23:21.344Z,23.88
2017-12-15T12:25:48.866Z,24.08
2017-12-15T12:28:16.482Z,24.04
2017-12-15T12:30:44.115Z,24.04
2017-12-15T12:33:11.539Z,24.16
2017-12-15T12:35:39.018Z,24.12
2017-12-15T12:38:06.699Z,24.17
2017-12-15T12:40:36.958Z,24.12
2017-12-15T12:43:04.690Z,24.15
2017-12-15T12:45:32.234Z,24.28
2017-12-15T12:48:00.412Z,24.38
2017-12-15T12:50:27.969Z,24.39
2017-12-15T12:52:55.615Z,24.22
2017-12-15T12:55:23.102Z,24.45
2017-12-15T12:57:50.875Z,24.47
2017-12-15T13:00:18.657Z,24.33
2017-12-15T13:02:46.262Z,24.44
2017-12-15T13:05:14.208Z,24.47
2017-12-15T13:07:42.361Z,24.61
2017-12-15T13:10:10.359Z,24.57
2017-12-15T13:12:40.691Z,24.53
2017-12-15T13:15:09.606Z,24.39
2017-12-15T13:17:38.200Z,24.38
2017-12-15T13:20:06.351Z,24.33
2017-12-15T13:22:34.965Z,24.36
2017-12-15T13:25:02.848Z,24.34
2017-12-15T13:27:31.153Z,24.29
2017-12-15T13:30:00.539Z,24.33
2017-12-15T13:32:30.836Z,24.28
2017-12-15T13:34:58.515Z,24.37
2017-12-15T13:37:29.017Z,24.36
2017-12-15T13:39:57.862Z,24.56
2017-12-15T13:42:29.121Z,24.51
2017-12-15T13:44:56.909Z,24.61
2017-12-15T13:47:26.452Z,24.73
2017-12-15T13:49:54.469Z,24.71
2017-12-15T13:52:31.224Z,24.65
2017-12-15T13:54:58.903Z,24.84
2017-12-15T13:57:26.446Z,24.79
2017-12-15T13:59:54.854Z,24.77
2017-12-15T14:02:23.029Z,24.76
2017-12-15T14:04:50.767Z,24.77
2017-12-15T14:07:19.896Z,24.81
2017-12-15T14:09:47.582Z,24.95
2017-12-15T14:12:15.080Z,24.95
2017-12-15T14:14:42.655Z,24.93
2017-12-15T14:17:10.115Z,24.88
2017-12-15T14:19:37.571Z,24.62
2017-12-15T14:22:05.176Z,24.52
2017-12-15T14:24:32.902Z,24.37
2017-12-15T14:27:00.565Z,24.67
2017-12-15T14:29:28.125Z,24.54
2017-12-15T14:31:57.357Z,24.62
2017-12-15T14:34:26.225Z,24.46
2017-12-15T14:36:54.415Z,24.52
2017-12-15T14:39:22.358Z,24.61
2017-12-15T14:41:51.434Z,24.43
2017-12-15T14:44:19.481Z,24.31
2017-12-15T14:46:48.008Z,24.46
2017-12-15T14:49:17.716Z,24.43
2017-12-15T14:51:45.264Z,24.33
2017-12-15T14:54:15.579Z,24.31
2017-12-15T14:56:43.993Z,24.32
2017-12-15T14:59:11.741Z,24.32
2017-12-15T15:01:39.151Z,24.30
2017-12-15T15:04:07.754Z,24.29
2017-12-15T15:06:35.337Z,24.25
2017-12-15T15:09:03.196Z,24.34
2017-12-15T15:11:30.851Z,24.32
2017-12-15T15:13:58.286Z,24.25
2017-12-15T15:16:25.949Z,24.19
2017-12-15T15:18:53.457Z,24.30
2017-12-15T15:21:21.542Z,24.19
2017-12-15T15:23:49.441Z,24.20
2017-12-15T15:26:17.832Z,24.07
2017-12-15T15:28:45.538Z,24.11
2017-12-15T15:31:13.621Z,24.10
2017-12-15T15:33:42.317Z,24.11
2017-12-15T15:36:10.195Z,24.10
2017-12-15T15:38:37.707Z,24.02
2017-12-15T15:41:05.367Z,24.02
2017-12-15T15:43:32.930Z,23.99
2017-12-15T15:46:00.554Z,24.02
2017-12-15T15:48:30.542Z,24.03
2017-12-15T15:50:57.934Z,24.02
2017-12-15T15:53:25.508Z,23.95
2017-12-15T15:55:52.988Z,23.78
2017-12-15T15:58:20.810Z,23.90
2017-12-15T16:00:48.459Z,23.90
2017-12-15T16:03:16.220Z,23.93
2017-12-15T16:05:44.090Z,23.82
2017-12-15T16:08:11.562Z,23.89
2017-12-15T16:10:39.085Z,23.85
2017-12-15T16:13:06.500Z,23.83
2017-12-15T16:15:34.183Z,23.74
2017-12-15T16:18:01.737Z,23.82
2017-12-15T16:20:30.184Z,23.75
2017-12-15T16:22:58.580Z,23.74
2017-12-15T16:25:26.073Z,23.63
2017-12-15T16:27:53.499Z,23.70
2017-12-15T16:30:21.329Z,23.70
2017-12-15T16:32:49.197Z,23.62
2017-12-15T16:35:16.660Z,23.70
2017-12-15T16:37:44.105Z,23.61
2017-12-15T16:40:11.636Z,23.70
2017-12-15T16:42:39.050Z,23.65
2017-12-15T16:45:06.450Z,23.57
2017-12-15T16:47:33.968Z,23.63
2017-12-15T16:50:01.500Z,23.52
2017-12-15T16:52:28.924Z,23.50
2017-12-15T16:54:56.543Z,23.50
2017-12-15T16:57:24.170Z,23.42
2017-12-15T16:59:51.847Z,23.43
2017-12-15T17:02:19.452Z,23.43
2017-12-15T17:04:46.877Z,23.42
2017-12-15T17:07:14.353Z,23.42
2017-12-15T17:09:41.802Z,23.40
2017-12-15T17:12:09.197Z,23.41
2017-12-15T17:14:36.605Z,23.40
2017-12-15T17:17:04.182Z,23.41
2017-12-15T17:19:31.598Z,23.41
2017-12-15T17:21:58.994Z,23.41
2017-12-15T17:24:26.490Z,23.39
2017-12-15T17:26:54.048Z,23.38
2017-12-15T17:29:21.479Z,23.40
2017-12-15T17:31:48.910Z,23.37
2017-12-15T17:34:16.319Z,23.36
2017-12-15T17:36:43.735Z,23.38
2017-12-15T17:39:11.146Z,23.33
2017-12-15T17:41:38.556Z,23.32
2017-12-15T17:44:06.156Z,23.36
2017-12-15T17:46:33.593Z,23.35
2017-12-15T17:49:01.036Z,23.32
2017-12-15T17:51:28.419Z,23.32
2017-12-15T17:53:55.808Z,23.31
2017-12-15T17:56:23.278Z,23.31
2017-12-15T17:58:50.678Z,23.29
2017-12-15T18:01:18.093Z,23.30
2017-12-15T18:03:45.639Z,23.31
2017-12-15T18:06:13.070Z,23.21
2017-12-15T18:08:40.549Z,23.23
2017-12-15T18:11:08.004Z,23.25
2017-12-15T18:16:08.680Z,23.26
2017-12-15T18:18:36.291Z,23.26
2017-12-15T18:21:03.692Z,23.25
2017-12-15T18:23:31.082Z,23.26
2017-12-15T18:25:58.505Z,23.23
2017-12-15T18:28:25.920Z,23.26
2017-12-15T18:30:53.299Z,23.26
2017-12-15T18:33:20.762Z,23.26
2017-12-15T18:35:48.326Z,23.24
2017-12-15T18:38:15.746Z,23.23
2017-12-15T18:40:43.115Z,23.23
2017-12-15T18:43:10.504Z,23.22
2017-12-15T18:45:37.918Z,23.23
2017-12-15T18:48:05.401Z,23.23
2017-12-15T18:50:32.784Z,23.21
2017-12-15T18:53:00.224Z,23.20
2017-12-15T18:55:27.606Z,23.18
2017-12-15T18:57:55.044Z,23.17
2017-12-15T19:00:22.467Z,23.16
2017-12-15T19:02:49.883Z,23.16
2017-12-15T19:05:17.239Z,23.14
2017-12-15T19:07:44.677Z,23.14
2017-12-15T19:10:12.094Z,23.13
2017-12-15T19:12:39.510Z,23.14
2017-12-15T19:15:06.956Z,23.15
2017-12-15T19:17:34.374Z,23.14
2017-12-15T19:20:01.791Z,23.14
2017-12-15T19:22:29.162Z,23.14
2017-12-15T19:24:56.543Z,23.13
2017-12-15T19:27:23.959Z,23.14
2017-12-15T19:29:51.333Z,23.12
2017-12-15T19:32:18.750Z,23.10
2017-12-15T19:34:46.186Z,23.10
2017-12-15T19:37:13.580Z,23.09
2017-12-15T19:39:41.002Z,23.07
2017-12-15T19:42:08.425Z,23.08
2017-12-15T19:44:35.812Z,23.06
2017-12-15T19:47:03.237Z,23.06
2017-12-15T19:49:30.624Z,23.05
2017-12-15T19:51:58.152Z,23.07
2017-12-15T19:54:25.563Z,23.05
2017-12-15T19:56:52.964Z,23.04
2017-12-15T19:59:20.422Z,23.03
2017-12-15T20:01:47.851Z,23.02
2017-12-15T20:04:15.394Z,23.03
2017-12-15T20:06:42.870Z,23.00
2017-12-15T20:09:10.375Z,22.98
2017-12-15T20:11:37.873Z,22.98
2017-12-15T20:14:05.292Z,22.94
2017-12-15T20:16:32.762Z,22.90
2017-12-15T20:19:00.141Z,22.84
2017-12-15T20:21:27.542Z,22.76
2017-12-15T20:23:55.046Z,22.74
2017-12-15T20:26:22.413Z,22.72
2017-12-15T20:28:49.857Z,22.66
2017-12-15T20:31:17.214Z,22.64
2017-12-15T20:33:44.670Z,22.61
2017-12-15T20:36:12.043Z,22.57
2017-12-15T20:38:39.471Z,22.53
2017-12-15T20:41:06.867Z,22.47
2017-12-15T20:43:34.380Z,22.42
2017-12-15T20:46:01.759Z,22.39
2017-12-15T20:48:29.126Z,22.35
2017-12-15T20:50:56.562Z,22.32
2017-12-15T20:53:23.939Z,22.31
2017-12-15T20:55:51.327Z,22.26
2017-12-15T20:58:18.846Z,22.24
2017-12-15T21:00:46.246Z,22.24
2017-12-15T21:03:13.623Z,22.21
2017-12-15T21:05:41.090Z,22.19
2017-12-15T21:08:08.543Z,22.15
2017-12-15T21:10:35.903Z,22.12
2017-12-15T21:13:03.392Z,22.15
2017-12-15T21:15:30.829Z,22.11
2017-12-15T21:17:58.343Z,22.09
2017-12-15T21:20:25.812Z,22.10
2017-12-15T21:22:53.223Z,22.08
2017-12-15T21:25:20.604Z,22.05
2017-12-15T21:27:48.031Z,22.06
2017-12-15T21:30:15.468Z,21.99
2017-12-15T21:32:42.879Z,21.95
2017-12-15T21:35:10.332Z,21.93
2017-12-15T21:37:37.756Z,21.95
2017-12-15T21:40:05.243Z,21.95
2017-12-15T21:42:32.632Z,21.94
2017-12-15T21:45:00.574Z,21.92
2017-12-15T21:47:27.988Z,21.90
2017-12-15T21:49:55.521Z,21.91
2017-12-15T21:52:22.961Z,21.89
2017-12-15T21:54:51.763Z,21.85
2017-12-15T21:57:19.252Z,21.89
2017-12-15T21:59:46.656Z,21.87
2017-12-15T22:02:14.144Z,21.86
2017-12-15T22:04:41.496Z,21.83
2017-12-15T22:07:08.847Z,21.85
2017-12-15T22:09:36.278Z,21.83
2017-12-15T22:12:03.695Z,21.81
2017-12-15T22:14:31.158Z,21.82
2017-12-15T22:16:58.547Z,21.79
2017-12-15T22:19:25.918Z,21.79
2017-12-15T22:21:53.335Z,21.78
2017-12-15T22:24:20.887Z,21.74
2017-12-15T22:26:48.421Z,21.73
2017-12-15T22:29:15.823Z,21.76
2017-12-15T22:31:43.222Z,21.75
2017-12-15T22:34:10.613Z,21.70
2017-12-15T22:36:38.031Z,21.75
2017-12-15T22:39:05.450Z,21.68
2017-12-15T22:41:32.885Z,21.68
2017-12-15T22:44:00.414Z,21.70
2017-12-15T22:46:27.799Z,21.70
2017-12-15T22:48:55.216Z,21.64
2017-12-15T22:51:22.687Z,21.65
2017-12-15T22:53:50.195Z,21.64
2017-12-15T22:56:17.691Z,21.61
2017-12-15T22:58:45.114Z,21.61
2017-12-15T23:01:12.486Z,21.60
2017-12-15T23:03:39.917Z,21.60
2017-12-15T23:06:07.283Z,21.60
2017-12-15T23:08:34.855Z,21.59
2017-12-15T23:11:02.270Z,21.57
2017-12-15T23:13:29.646Z,21.58
2017-12-15T23:15:57.074Z,21.57
2017-12-15T23:18:24.707Z,21.57
2017-12-15T23:20:52.112Z,21.53
2017-12-15T23:23:19.479Z,21.51
2017-12-15T23:25:46.906Z,21.52
2017-12-15T23:28:14.338Z,21.47
2017-12-15T23:30:41.759Z,21.47
2017-12-15T23:33:09.136Z,21.43
2017-12-15T23:35:36.612Z,21.45
2017-12-15T23:38:04.010Z,21.42
2017-12-15T23:40:31.442Z,21.41
2017-12-15T23:42:59.026Z,21.40
2017-12-15T23:45:26.426Z,21.40
2017-12-15T23:47:53.890Z,21.39
2017-12-15T23:50:21.380Z,21.45
2017-12-15T23:52:48.782Z,21.42
2017-12-15T23:55:16.207Z,21.44
2017-12-15T23:57:43.560Z,21.45
